Time;durP1;ratioP1;P1;durP2;ratioP2;P2;SDS_P1;SDS_P2;PMS_P1;PMS_P2;Temp;Humidity;BMP_temperature;BMP_pressure;BME280_temperature;BME280_humidity;BME280_pressure;Samples;Min_cycle;Max_cycle;Signal;HPM_P1;HPM_P2
2022/12/10 00:01:22;;;;;;;16.77;11.30;;;-0.10;99.90;;;;;;5005599;28;20245;-58
2022/12/10 00:03:48;;;;;;;15.53;11.03;;;-0.10;99.90;;;;;;5010817;28;20619;-57
2022/12/10 00:06:20;;;;;;;19.40;12.97;;;-0.10;99.90;;;;;;5003771;28;20300;-57
2022/12/10 00:08:46;;;;;;;17.10;11.87;;;-0.10;99.90;;;;;;5011150;28;20214;-58
2022/12/10 00:11:13;;;;;;;14.27;10.70;;;-0.10;99.90;;;;;;5006592;28;20568;-58
2022/12/10 00:13:38;;;;;;;12.77;10.10;;;-0.10;99.90;;;;;;5008249;28;20310;-58
2022/12/10 00:16:07;;;;;;;14.83;11.07;;;-0.20;99.90;;;;;;5007384;28;20292;-58
2022/12/10 00:18:33;;;;;;;17.87;11.90;;;-0.20;99.90;;;;;;5005602;28;20515;-58
2022/12/10 00:21:03;;;;;;;13.60;11.00;;;-0.10;99.90;;;;;;5006061;28;20202;-59
2022/12/10 00:23:30;;;;;;;18.17;12.20;;;-0.10;99.90;;;;;;5007653;28;20272;-59
2022/12/10 00:26:02;;;;;;;21.03;12.00;;;-0.20;99.90;;;;;;5007395;28;20212;-59
2022/12/10 00:28:28;;;;;;;19.30;13.23;;;-0.20;99.90;;;;;;5006988;28;20214;-59
2022/12/10 00:30:53;;;;;;;18.37;11.10;;;-0.10;99.90;;;;;;5007181;28;20192;-58
2022/12/10 00:33:19;;;;;;;17.10;12.67;;;-0.20;99.90;;;;;;5007546;28;20211;-58
2022/12/10 00:35:44;;;;;;;16.53;11.40;;;-0.30;99.90;;;;;;5006475;28;20288;-59
2022/12/10 00:38:10;;;;;;;18.03;12.33;;;-0.30;99.90;;;;;;5005594;28;20195;-58
2022/12/10 00:40:35;;;;;;;15.73;11.87;;;-0.30;99.90;;;;;;5006722;28;20197;-58
2022/12/10 00:43:00;;;;;;;15.87;11.03;;;-0.40;99.90;;;;;;5005074;28;20204;-55
2022/12/10 00:45:26;;;;;;;15.63;12.10;;;-0.30;99.90;;;;;;5006902;28;20220;-56
2022/12/10 00:47:51;;;;;;;14.53;11.43;;;-0.30;99.90;;;;;;5006742;28;20211;-54
2022/12/10 00:50:17;;;;;;;16.83;11.33;;;-0.30;99.90;;;;;;5006536;28;20213;-55
2022/12/10 00:52:42;;;;;;;16.20;10.40;;;-0.40;99.90;;;;;;5015752;28;20718;-55
2022/12/10 00:55:08;;;;;;;15.17;11.10;;;-0.40;99.90;;;;;;5015167;28;20282;-55
2022/12/10 00:57:33;;;;;;;16.50;11.10;;;-0.40;99.90;;;;;;5016724;28;20251;-55
2022/12/10 00:59:59;;;;;;;18.93;11.47;;;-0.50;99.90;;;;;;5011288;28;20283;-55
2022/12/10 01:02:24;;;;;;;14.43;10.60;;;-0.50;99.90;;;;;;5005985;28;20205;-55
2022/12/10 01:04:53;;;;;;;17.40;12.63;;;-0.50;99.90;;;;;;5005348;28;20217;-55
2022/12/10 01:07:19;;;;;;;16.17;10.23;;;-0.60;99.90;;;;;;5007330;28;20633;-54
2022/12/10 01:09:44;;;;;;;18.13;11.80;;;-0.50;99.90;;;;;;5004573;28;20197;-56
2022/12/10 01:12:10;;;;;;;16.20;10.87;;;-0.60;99.90;;;;;;5006350;28;20199;-55
2022/12/10 01:14:36;;;;;;;15.57;11.07;;;-0.60;99.90;;;;;;5007217;28;20216;-55
2022/12/10 01:17:04;;;;;;;17.47;10.90;;;-0.60;99.90;;;;;;5006844;28;20254;-55
2022/12/10 01:19:30;;;;;;;14.20;10.43;;;-0.60;99.90;;;;;;5004164;28;20247;-55
2022/12/10 01:21:56;;;;;;;14.33;9.80;;;-0.70;99.90;;;;;;5007088;28;20257;-54
2022/12/10 01:24:24;;;;;;;16.97;11.57;;;-0.70;99.90;;;;;;5006134;28;20245;-54
2022/12/10 01:26:49;;;;;;;15.83;10.80;;;-0.70;99.90;;;;;;5005861;28;20698;-54
2022/12/10 01:29:15;;;;;;;17.97;11.70;;;-0.70;99.90;;;;;;5006135;28;20204;-54
2022/12/10 01:31:42;;;;;;;15.63;10.73;;;-0.80;99.90;;;;;;5004892;28;20711;-57
2022/12/10 01:34:11;;;;;;;14.17;9.97;;;-0.80;99.90;;;;;;5006072;28;20218;-55
2022/12/10 01:36:42;;;;;;;15.67;9.87;;;-0.90;99.90;;;;;;5004082;28;20602;-55
2022/12/10 01:39:11;;;;;;;14.40;10.63;;;-0.90;99.90;;;;;;5006364;28;20192;-54
2022/12/10 01:41:43;;;;;;;15.67;11.07;;;-1.00;99.90;;;;;;5005337;28;20315;-56
2022/12/10 01:44:08;;;;;;;15.63;10.80;;;-1.00;99.90;;;;;;5005756;28;20197;-54
2022/12/10 01:46:42;;;;;;;17.40;11.87;;;-1.10;99.90;;;;;;5006081;28;20219;-55
2022/12/10 01:49:15;;;;;;;17.10;11.37;;;-1.20;99.90;;;;;;5005765;28;20687;-55
2022/12/10 01:51:43;;;;;;;19.93;12.80;;;-1.20;99.90;;;;;;5005334;28;20276;-54
2022/12/10 01:54:13;;;;;;;16.27;11.50;;;-1.20;99.90;;;;;;5006078;28;20211;-55
2022/12/10 01:56:42;;;;;;;17.90;11.63;;;-1.30;99.90;;;;;;5007772;28;20223;-55
2022/12/10 01:59:09;;;;;;;15.53;10.93;;;-1.30;99.90;;;;;;5009816;28;20666;-55
2022/12/10 02:02:13;;;;;;;12.57;9.47;;;-1.30;99.90;;;;;;5008916;28;20302;-55
2022/12/10 02:04:56;;;;;;;18.50;11.37;;;-1.40;99.90;;;;;;5010852;28;20226;-55
2022/12/10 02:07:48;;;;;;;16.33;10.73;;;-1.40;99.90;;;;;;5011512;28;20470;-54
2022/12/10 02:10:54;;;;;;;18.43;12.10;;;-1.40;99.90;;;;;;5009070;28;20568;-54
2022/12/10 02:13:56;;;;;;;13.50;10.57;;;-1.40;99.90;;;;;;4993847;28;20215;-58
2022/12/10 02:16:39;;;;;;;14.87;10.77;;;-1.50;99.90;;;;;;5007942;28;20187;-54
2022/12/10 02:19:48;;;;;;;15.83;10.60;;;-1.50;99.90;;;;;;5013161;28;20208;-56
2022/12/10 02:22:17;;;;;;;15.67;10.60;;;-1.60;99.90;;;;;;5004639;28;20196;-54
2022/12/10 02:24:43;;;;;;;15.20;10.70;;;-1.60;99.90;;;;;;5011022;28;20438;-59
2022/12/10 02:27:33;;;;;;;16.17;11.43;;;-1.50;99.90;;;;;;5008090;28;20698;-54
2022/12/10 02:30:00;;;;;;;17.37;12.33;;;-1.60;99.90;;;;;;5018010;28;20211;-53
2022/12/10 02:32:33;;;;;;;14.50;10.57;;;-1.60;99.90;;;;;;5011974;28;20603;-54
2022/12/10 02:35:03;;;;;;;15.07;11.37;;;-1.60;99.90;;;;;;5018118;28;20560;-54
2022/12/10 02:37:33;;;;;;;16.67;12.00;;;-1.60;99.90;;;;;;5008508;28;20215;-66
2022/12/10 02:40:04;;;;;;;17.90;11.93;;;-1.60;99.90;;;;;;5013454;28;20193;-59
2022/12/10 02:42:33;;;;;;;16.77;11.47;;;-1.60;99.90;;;;;;5011517;28;20204;-59
2022/12/10 02:45:00;;;;;;;17.00;12.40;;;-1.50;99.90;;;;;;5022144;28;20323;-62
2022/12/10 02:47:26;;;;;;;19.03;11.83;;;-1.50;99.90;;;;;;5016431;28;20203;-55
2022/12/10 02:49:56;;;;;;;15.53;11.37;;;-1.50;99.90;;;;;;5019061;28;20207;-55
2022/12/10 02:52:23;;;;;;;16.57;12.10;;;-1.50;99.90;;;;;;5017340;28;20215;-55
2022/12/10 02:54:49;;;;;;;17.37;11.37;;;-1.50;99.90;;;;;;5013722;28;20211;-55
2022/12/10 02:57:17;;;;;;;16.83;12.13;;;-1.60;99.90;;;;;;5008820;28;20776;-54
2022/12/10 03:00:05;;;;;;;15.23;12.00;;;-1.60;99.90;;;;;;5015702;28;20199;-55
2022/12/10 03:02:43;;;;;;;19.40;12.33;;;-1.60;99.90;;;;;;5019503;28;20258;-55
2022/12/10 03:05:17;;;;;;;17.70;12.03;;;-1.60;99.90;;;;;;5016710;28;20579;-55
2022/12/10 03:07:49;;;;;;;18.30;11.70;;;-1.60;99.90;;;;;;5005944;28;20716;-57
2022/12/10 03:10:42;;;;;;;16.50;12.00;;;-1.60;99.90;;;;;;5009785;28;20729;-55
2022/12/10 03:13:12;;;;;;;18.17;12.30;;;-1.60;99.90;;;;;;5008955;28;20230;-55
2022/12/10 03:15:40;;;;;;;17.27;12.60;;;-1.60;99.90;;;;;;5009837;28;20208;-55
2022/12/10 03:18:08;;;;;;;15.37;11.50;;;-1.50;99.90;;;;;;5009443;28;20216;-54
2022/12/10 03:20:38;;;;;;;20.97;13.67;;;-1.50;99.90;;;;;;5009684;28;20199;-54
2022/12/10 03:23:07;;;;;;;17.43;12.27;;;-1.40;99.90;;;;;;5009212;28;20214;-54
2022/12/10 03:25:34;;;;;;;16.10;12.63;;;-1.40;99.90;;;;;;5009751;28;20580;-55
2022/12/10 03:28:00;;;;;;;17.63;12.87;;;-1.30;99.90;;;;;;5010296;28;20252;-55
2022/12/10 03:30:26;;;;;;;18.20;13.57;;;-1.30;99.90;;;;;;5018958;28;20203;-56
2022/12/10 03:32:52;;;;;;;15.73;12.07;;;-1.20;99.90;;;;;;5009242;28;20550;-56
2022/12/10 03:35:20;;;;;;;23.23;15.03;;;-1.20;99.90;;;;;;5020044;28;20216;-56
2022/12/10 03:37:46;;;;;;;24.70;15.70;;;-1.20;99.90;;;;;;5014188;28;20769;-55
2022/12/10 03:40:14;;;;;;;23.17;15.13;;;-1.20;99.90;;;;;;5006536;28;20313;-55
2022/12/10 03:42:39;;;;;;;22.00;15.87;;;-1.20;99.90;;;;;;5009280;28;20215;-54
2022/12/10 03:45:05;;;;;;;23.40;14.77;;;-1.20;99.90;;;;;;5008233;28;20697;-55
2022/12/10 03:47:32;;;;;;;21.97;14.67;;;-1.20;99.90;;;;;;5006100;28;20281;-54
2022/12/10 03:49:57;;;;;;;16.70;12.40;;;-1.20;99.90;;;;;;5007804;28;20277;-54
2022/12/10 03:52:22;;;;;;;18.30;12.70;;;-1.30;99.90;;;;;;5008058;28;20239;-54
2022/12/10 03:54:48;;;;;;;17.97;13.27;;;-1.30;99.90;;;;;;5008270;28;20223;-54
2022/12/10 03:57:14;;;;;;;18.13;12.13;;;-1.30;99.90;;;;;;5008147;28;20563;-54
2022/12/10 03:59:39;;;;;;;21.17;12.77;;;-1.30;99.90;;;;;;5014077;28;20276;-54
2022/12/10 04:02:05;;;;;;;20.23;12.63;;;-1.30;99.90;;;;;;5015938;28;20354;-54
2022/12/10 04:04:30;;;;;;;20.17;13.27;;;-1.20;99.90;;;;;;5014479;28;20213;-55
2022/12/10 04:06:56;;;;;;;22.50;14.13;;;-1.20;99.90;;;;;;5018332;28;21342;-54
2022/12/10 04:09:21;;;;;;;20.90;12.93;;;-1.10;99.90;;;;;;5017085;28;20204;-55
2022/12/10 04:11:47;;;;;;;17.73;12.83;;;-1.10;99.90;;;;;;4972662;28;20199;-56
2022/12/10 04:16:57;;;;;;;17.43;12.67;;;-1.00;99.90;;;;;;5008601;28;20960;-56
2022/12/10 04:19:22;;;;;;;23.50;13.87;;;-0.90;99.90;;;;;;5006826;28;20207;-56
2022/12/10 04:27:25;;;;;;;21.33;16.83;;;-0.80;99.90;;;;;;5004720;28;20395;-55
2022/12/10 04:29:51;;;;;;;22.07;14.10;;;-0.70;99.90;;;;;;5017618;28;20707;-55
2022/12/10 04:32:18;;;;;;;19.77;13.37;;;-0.60;99.90;;;;;;5008160;28;20205;-55
2022/12/10 04:34:43;;;;;;;20.17;13.77;;;-0.60;99.90;;;;;;5015271;28;20291;-55
2022/12/10 04:37:11;;;;;;;18.23;12.40;;;-0.50;99.90;;;;;;5007407;28;20291;-55
2022/12/10 04:39:36;;;;;;;22.17;14.47;;;-0.50;99.90;;;;;;5013051;28;20281;-54
2022/12/10 04:42:02;;;;;;;21.67;14.00;;;-0.50;99.90;;;;;;5007269;28;20237;-55
2022/12/10 04:44:28;;;;;;;23.90;14.70;;;-0.40;99.90;;;;;;5008207;28;20233;-55
2022/12/10 04:46:53;;;;;;;22.43;14.03;;;-0.40;99.90;;;;;;5008069;28;20289;-54
2022/12/10 04:49:19;;;;;;;17.37;12.53;;;-0.40;99.90;;;;;;5009748;28;20671;-55
2022/12/10 04:51:45;;;;;;;18.53;13.23;;;-0.40;99.90;;;;;;5005890;28;20195;-55
2022/12/10 04:54:11;;;;;;;20.80;13.37;;;-0.40;99.90;;;;;;5008036;28;20292;-54
2022/12/10 04:56:37;;;;;;;19.67;13.70;;;-0.40;99.90;;;;;;5008422;28;20220;-56
2022/12/10 04:59:04;;;;;;;17.57;12.33;;;-0.40;99.90;;;;;;5017410;28;20280;-54
2022/12/10 05:01:30;;;;;;;17.37;13.33;;;-0.30;99.90;;;;;;5017554;28;20200;-54
2022/12/10 05:03:59;;;;;;;18.67;12.30;;;-0.30;99.90;;;;;;5017446;28;20284;-55
2022/12/10 05:06:24;;;;;;;17.63;12.10;;;-0.30;99.90;;;;;;5017191;28;20691;-54
2022/12/10 05:08:50;;;;;;;19.63;12.57;;;-0.20;99.90;;;;;;5015322;28;20197;-55
2022/12/10 05:11:18;;;;;;;19.00;12.83;;;-0.20;99.90;;;;;;5016070;28;20674;-54
2022/12/10 05:13:44;;;;;;;19.73;12.87;;;-0.20;99.90;;;;;;5014285;28;20216;-55
2022/12/10 05:16:12;;;;;;;18.37;12.60;;;-0.20;99.90;;;;;;5007600;28;20280;-55
2022/12/10 05:18:38;;;;;;;15.67;12.53;;;-0.10;99.90;;;;;;5007613;28;20258;-55
2022/12/10 05:21:07;;;;;;;19.77;14.13;;;-0.10;99.90;;;;;;5004588;28;20204;-55
2022/12/10 05:23:33;;;;;;;20.80;13.93;;;-0.10;99.90;;;;;;5008868;28;20679;-55
2022/12/10 05:26:02;;;;;;;16.03;12.97;;;-0.10;99.90;;;;;;5004416;28;20271;-55
2022/12/10 05:28:29;;;;;;;16.80;11.70;;;0.00;99.90;;;;;;5009483;28;20196;-56
2022/12/10 05:30:54;;;;;;;17.27;12.00;;;0.00;99.90;;;;;;5016356;28;20692;-55
2022/12/10 05:33:20;;;;;;;16.33;11.83;;;0.00;99.90;;;;;;5016017;28;20284;-55
2022/12/10 05:35:57;;;;;;;17.53;13.33;;;0.10;99.90;;;;;;5018666;28;20207;-55
2022/12/10 05:38:23;;;;;;;17.70;12.53;;;0.10;99.90;;;;;;5014121;28;20216;-55
2022/12/10 05:40:49;;;;;;;15.33;12.23;;;0.10;99.90;;;;;;5016783;28;20200;-55
2022/12/10 05:43:14;;;;;;;15.43;11.53;;;0.10;99.90;;;;;;5015861;28;20299;-55
2022/12/10 05:45:40;;;;;;;13.90;10.47;;;0.20;99.90;;;;;;5014915;28;20240;-55
2022/12/10 05:48:06;;;;;;;20.23;14.63;;;0.20;99.90;;;;;;5016474;28;20194;-55
2022/12/10 05:50:32;;;;;;;15.23;11.47;;;0.20;99.90;;;;;;5002513;28;20544;-55
2022/12/10 05:52:58;;;;;;;14.63;10.63;;;0.20;99.90;;;;;;5007053;28;20246;-54
2022/12/10 05:55:24;;;;;;;15.97;10.63;;;0.10;99.90;;;;;;5016111;28;20220;-55
2022/12/10 05:57:50;;;;;;;11.97;9.77;;;0.10;99.90;;;;;;5006888;28;20371;-55
2022/12/10 06:00:15;;;;;;;13.07;9.50;;;0.10;99.90;;;;;;5010628;28;20292;-56
2022/12/10 06:02:41;;;;;;;14.30;10.97;;;0.10;99.90;;;;;;5016573;28;20212;-55
2022/12/10 06:05:06;;;;;;;12.73;9.87;;;0.10;99.90;;;;;;5014417;28;20212;-56
2022/12/10 06:07:32;;;;;;;13.33;9.97;;;0.10;99.90;;;;;;5016123;28;20662;-56
2022/12/10 06:09:57;;;;;;;12.73;9.80;;;0.00;99.90;;;;;;5014891;28;20338;-55
2022/12/10 06:12:23;;;;;;;14.87;9.93;;;0.00;99.90;;;;;;5019470;28;20542;-55
2022/12/10 06:14:48;;;;;;;13.60;10.33;;;-0.10;99.90;;;;;;5013325;28;20208;-55
2022/12/10 06:17:14;;;;;;;13.83;10.30;;;-0.10;99.90;;;;;;5014391;28;20250;-55
2022/12/10 06:19:39;;;;;;;13.93;10.10;;;-0.10;99.90;;;;;;5016895;28;20208;-55
2022/12/10 06:22:05;;;;;;;15.80;10.27;;;-0.10;99.90;;;;;;5016538;28;20274;-55
2022/12/10 06:24:30;;;;;;;12.60;9.33;;;-0.10;99.90;;;;;;5014032;28;20318;-55
2022/12/10 06:26:55;;;;;;;12.47;9.87;;;-0.10;99.90;;;;;;5016069;28;20208;-54
2022/12/10 06:29:21;;;;;;;12.13;9.57;;;-0.10;99.90;;;;;;5016259;28;20222;-53
2022/12/10 06:31:46;;;;;;;12.43;9.30;;;-0.10;99.90;;;;;;5013882;28;20582;-54
2022/12/10 06:34:12;;;;;;;13.30;9.33;;;-0.10;99.90;;;;;;5016205;28;20208;-53
2022/12/10 06:36:37;;;;;;;11.90;10.03;;;0.00;99.90;;;;;;5016671;28;20209;-53
2022/12/10 06:39:03;;;;;;;10.00;8.57;;;0.00;99.90;;;;;;5015861;28;20672;-55
2022/12/10 06:41:29;;;;;;;13.53;9.77;;;0.00;99.90;;;;;;5018286;28;20192;-54
2022/12/10 06:43:58;;;;;;;10.10;8.30;;;0.10;99.90;;;;;;5018178;28;20249;-55
2022/12/10 06:46:24;;;;;;;10.57;9.17;;;0.00;99.90;;;;;;5017183;28;20585;-54
2022/12/10 06:48:49;;;;;;;12.57;9.10;;;0.00;99.90;;;;;;5019718;28;20208;-60
2022/12/10 06:51:17;;;;;;;13.23;9.93;;;0.00;99.90;;;;;;5018892;28;20203;-54
2022/12/10 06:53:43;;;;;;;11.53;9.00;;;0.00;99.90;;;;;;5017772;28;20679;-56
2022/12/10 06:56:14;;;;;;;13.33;9.67;;;0.00;99.90;;;;;;5009747;28;20331;-55
2022/12/10 06:58:41;;;;;;;12.80;10.17;;;0.10;99.90;;;;;;5019084;28;20214;-54
2022/12/10 07:01:14;;;;;;;11.53;9.47;;;0.00;99.90;;;;;;5019398;28;20227;-54
2022/12/10 07:03:40;;;;;;;12.33;9.60;;;0.00;99.90;;;;;;5016633;28;20638;-55
2022/12/10 07:06:07;;;;;;;11.43;8.90;;;0.00;99.90;;;;;;5019308;28;20559;-55
2022/12/10 07:08:32;;;;;;;10.80;9.03;;;0.00;99.90;;;;;;5017719;28;20544;-54
2022/12/10 07:10:58;;;;;;;12.97;9.50;;;0.00;99.90;;;;;;5019044;28;20251;-54
2022/12/10 07:13:24;;;;;;;12.47;9.70;;;0.00;99.90;;;;;;5019132;28;20223;-54
2022/12/10 07:15:49;;;;;;;9.40;8.40;;;0.00;99.90;;;;;;5016154;28;20222;-54
2022/12/10 07:18:15;;;;;;;10.63;8.93;;;-0.10;99.90;;;;;;5019104;28;20755;-54
2022/12/10 07:20:40;;;;;;;12.10;8.20;;;-0.10;99.90;;;;;;5018818;28;20243;-54
2022/12/10 07:23:06;;;;;;;12.10;9.47;;;-0.10;99.90;;;;;;5018556;28;20223;-54
2022/12/10 07:25:32;;;;;;;13.00;9.97;;;-0.10;99.90;;;;;;5018828;28;20203;-55
2022/12/10 07:27:58;;;;;;;12.13;9.27;;;-0.10;99.90;;;;;;5016955;28;20702;-55
2022/12/10 07:30:23;;;;;;;12.93;9.93;;;-0.10;99.90;;;;;;5017375;28;20213;-54
2022/12/10 07:32:49;;;;;;;11.57;9.10;;;-0.10;99.90;;;;;;5019110;28;20718;-54
2022/12/10 07:35:14;;;;;;;10.60;9.33;;;0.00;99.90;;;;;;5017971;28;20640;-54
2022/12/10 07:37:40;;;;;;;10.53;8.77;;;0.00;99.90;;;;;;5019843;28;20255;-54
2022/12/10 07:40:06;;;;;;;9.77;8.67;;;0.00;99.90;;;;;;5018892;28;20200;-55
2022/12/10 07:42:31;;;;;;;9.07;7.93;;;0.00;99.90;;;;;;5016147;28;20702;-57
2022/12/10 07:44:57;;;;;;;10.93;9.07;;;0.00;99.90;;;;;;5016788;28;20573;-55
2022/12/10 07:47:22;;;;;;;10.47;9.00;;;0.00;99.90;;;;;;5018243;28;20278;-55
2022/12/10 07:49:47;;;;;;;11.10;8.60;;;-0.10;99.90;;;;;;5018185;28;20246;-55
2022/12/10 07:52:13;;;;;;;13.03;8.77;;;-0.10;99.90;;;;;;5017674;28;20661;-55
2022/12/10 07:54:38;;;;;;;9.73;8.20;;;-0.10;99.90;;;;;;5018279;28;20385;-55
2022/12/10 07:57:04;;;;;;;10.77;8.67;;;-0.10;99.90;;;;;;5011489;28;20220;-56
2022/12/10 07:59:30;;;;;;;12.90;9.83;;;-0.10;99.90;;;;;;5017082;28;20354;-55
2022/12/10 08:01:56;;;;;;;10.50;9.40;;;0.00;99.90;;;;;;5017846;28;20221;-55
2022/12/10 08:04:21;;;;;;;11.60;9.00;;;0.10;99.90;;;;;;5016242;28;20211;-55
2022/12/10 08:06:47;;;;;;;11.33;8.67;;;0.10;99.90;;;;;;5018247;28;20196;-55
2022/12/10 08:09:14;;;;;;;10.07;8.53;;;0.20;99.90;;;;;;5017998;28;20228;-56
2022/12/10 08:11:39;;;;;;;15.17;12.67;;;0.20;99.90;;;;;;5018093;28;20201;-55
2022/12/10 08:14:04;;;;;;;13.20;11.20;;;0.30;99.90;;;;;;5018192;28;20204;-54
2022/12/10 08:16:31;;;;;;;13.53;10.70;;;0.30;99.90;;;;;;5017984;28;20212;-55
2022/12/10 08:18:58;;;;;;;10.30;9.03;;;0.30;99.90;;;;;;5017965;28;20214;-54
2022/12/10 08:21:26;;;;;;;12.93;9.90;;;0.30;99.90;;;;;;5015857;28;20216;-54
2022/12/10 08:23:53;;;;;;;9.63;8.40;;;0.20;99.90;;;;;;5018400;28;20207;-54
2022/12/10 08:26:24;;;;;;;10.33;9.23;;;0.30;99.90;;;;;;5017740;28;20220;-53
2022/12/10 08:28:50;;;;;;;14.00;10.30;;;0.20;99.90;;;;;;5017616;28;20298;-55
2022/12/10 08:31:17;;;;;;;15.00;9.73;;;0.30;99.90;;;;;;5015568;28;20579;-55
2022/12/10 08:33:43;;;;;;;12.90;9.50;;;0.30;99.90;;;;;;5017387;28;20238;-55
2022/12/10 08:36:11;;;;;;;10.53;8.90;;;0.30;99.90;;;;;;5017790;28;20213;-55
2022/12/10 08:38:37;;;;;;;11.10;8.97;;;0.40;99.90;;;;;;5017208;28;20718;-54
2022/12/10 08:41:17;;;;;;;12.77;10.37;;;0.40;99.90;;;;;;5017301;28;20295;-54
2022/12/10 08:43:43;;;;;;;11.00;8.53;;;0.40;99.90;;;;;;5017590;28;20284;-54
2022/12/10 08:46:10;;;;;;;13.13;9.53;;;0.40;99.90;;;;;;5018459;28;20439;-54
2022/12/10 08:48:37;;;;;;;11.63;9.33;;;0.40;99.90;;;;;;5015641;28;20299;-55
2022/12/10 08:51:04;;;;;;;11.07;8.43;;;0.50;99.90;;;;;;5018235;28;20208;-54
2022/12/10 08:53:30;;;;;;;9.87;8.30;;;0.50;99.90;;;;;;5015662;28;20686;-62
2022/12/10 08:55:55;;;;;;;9.53;8.53;;;0.50;99.90;;;;;;5016165;28;20213;-54
2022/12/10 08:58:21;;;;;;;10.07;8.40;;;0.50;99.90;;;;;;5021293;28;20570;-54
2022/12/10 09:00:48;;;;;;;11.43;8.70;;;0.50;99.90;;;;;;5017344;28;20196;-56
2022/12/10 09:03:14;;;;;;;10.10;8.37;;;0.50;99.90;;;;;;5016950;28;20209;-55
2022/12/10 09:05:39;;;;;;;9.60;8.57;;;0.50;99.90;;;;;;5016200;28;20209;-55
2022/12/10 09:08:05;;;;;;;10.23;9.10;;;0.60;99.90;;;;;;5006191;28;20200;-56
2022/12/10 09:10:30;;;;;;;10.67;9.00;;;0.70;99.90;;;;;;5007098;28;20201;-54
2022/12/10 09:12:56;;;;;;;12.10;8.57;;;0.70;99.90;;;;;;5006636;28;20309;-54
2022/12/10 09:15:21;;;;;;;9.43;8.50;;;0.70;99.90;;;;;;5021996;28;20243;-54
2022/12/10 09:17:47;;;;;;;11.60;8.77;;;0.80;99.90;;;;;;5020545;28;20204;-54
2022/12/10 09:20:13;;;;;;;8.90;7.93;;;0.70;99.90;;;;;;5018347;28;20624;-55
2022/12/10 09:22:38;;;;;;;9.60;8.60;;;0.80;99.90;;;;;;5004259;28;20197;-54
2022/12/10 09:25:09;;;;;;;9.73;8.73;;;0.90;99.90;;;;;;5012531;28;20210;-54
2022/12/10 09:27:35;;;;;;;13.53;9.67;;;0.80;99.90;;;;;;5019692;28;20648;-55
2022/12/10 09:30:00;;;;;;;12.43;9.97;;;0.90;99.90;;;;;;5018790;28;20201;-55
2022/12/10 09:32:26;;;;;;;10.90;8.27;;;0.90;99.90;;;;;;5020676;28;20805;-54
2022/12/10 09:34:52;;;;;;;10.10;8.93;;;0.90;99.90;;;;;;5019524;28;20202;-54
2022/12/10 09:37:18;;;;;;;10.70;8.70;;;0.90;99.90;;;;;;5021982;28;20208;-55
2022/12/10 09:39:43;;;;;;;11.13;7.73;;;1.00;99.90;;;;;;5016416;28;20218;-55
2022/12/10 09:42:40;;;;;;;9.20;8.03;;;1.00;99.90;;;;;;5018458;28;20201;-55
2022/12/10 09:45:17;;;;;;;10.83;8.80;;;1.10;99.90;;;;;;5020349;28;20751;-55
2022/12/10 09:47:52;;;;;;;10.77;8.30;;;1.10;99.90;;;;;;5023239;28;20676;-56
2022/12/10 09:50:30;;;;;;;10.33;8.80;;;1.00;99.90;;;;;;5018785;28;20193;-55
2022/12/10 09:52:58;;;;;;;10.50;8.90;;;1.10;99.90;;;;;;5024186;28;20593;-55
2022/12/10 09:55:35;;;;;;;10.93;8.93;;;1.10;99.90;;;;;;5016648;28;20290;-55
2022/12/10 09:58:03;;;;;;;9.60;8.60;;;1.10;99.90;;;;;;5015611;28;20531;-55
2022/12/10 10:00:29;;;;;;;10.00;8.70;;;1.10;99.90;;;;;;5019335;28;20233;-55
2022/12/10 10:03:01;;;;;;;8.80;7.90;;;1.00;99.90;;;;;;5017640;28;20279;-55
2022/12/10 10:05:48;;;;;;;11.67;9.17;;;1.00;99.90;;;;;;5018705;28;20223;-55
2022/12/10 10:08:28;;;;;;;12.10;8.97;;;1.10;99.90;;;;;;5024713;28;20198;-54
2022/12/10 10:10:53;;;;;;;10.87;9.47;;;1.10;99.90;;;;;;5020885;28;20204;-58
2022/12/10 10:13:43;;;;;;;11.17;8.43;;;1.10;99.90;;;;;;5018857;28;20205;-58
2022/12/10 10:16:23;;;;;;;11.57;8.87;;;1.10;99.90;;;;;;5023502;28;20201;-58
2022/12/10 10:18:58;;;;;;;11.23;9.07;;;1.20;99.90;;;;;;5022848;28;20224;-58
2022/12/10 10:21:28;;;;;;;12.47;8.43;;;1.10;99.90;;;;;;5025779;28;20215;-55
2022/12/10 10:23:56;;;;;;;10.00;7.83;;;1.10;99.90;;;;;;5031439;28;20782;-56
2022/12/10 10:26:25;;;;;;;13.27;9.10;;;1.10;99.90;;;;;;5025996;28;20215;-56
2022/12/10 10:29:00;;;;;;;10.93;9.13;;;1.00;99.90;;;;;;5025839;28;20674;-54
2022/12/10 10:31:29;;;;;;;11.93;9.13;;;1.10;99.90;;;;;;5029079;28;20253;-56
2022/12/10 10:34:12;;;;;;;10.33;8.63;;;1.10;99.90;;;;;;5027339;28;20259;-56
2022/12/10 10:36:38;;;;;;;11.50;9.07;;;1.20;99.90;;;;;;5017692;28;20327;-56
2022/12/10 10:39:11;;;;;;;10.30;9.23;;;1.10;99.90;;;;;;5016613;28;20683;-56
2022/12/10 10:41:39;;;;;;;11.20;9.30;;;1.10;99.90;;;;;;5010760;28;20733;-54
2022/12/10 10:44:15;;;;;;;11.33;8.23;;;1.10;99.90;;;;;;5019863;28;20300;-55
2022/12/10 10:46:42;;;;;;;10.53;8.77;;;1.20;99.90;;;;;;5017175;28;20213;-55
2022/12/10 10:49:29;;;;;;;12.60;9.80;;;1.20;99.90;;;;;;5019120;28;20202;-54
2022/12/10 10:52:04;;;;;;;10.53;8.83;;;1.20;99.90;;;;;;5017256;28;20561;-55
2022/12/10 10:54:41;;;;;;;12.47;9.50;;;1.20;99.90;;;;;;5019283;28;20240;-55
2022/12/10 10:57:27;;;;;;;11.83;9.50;;;1.20;99.90;;;;;;5013773;28;20230;-55
2022/12/10 10:59:55;;;;;;;10.80;9.80;;;1.10;99.90;;;;;;5019421;28;20332;-55
2022/12/10 11:02:35;;;;;;;10.40;8.53;;;1.20;99.90;;;;;;5017237;28;20297;-56
2022/12/10 11:05:23;;;;;;;14.10;10.30;;;1.20;99.90;;;;;;5016782;28;20288;-55
2022/12/10 11:07:57;;;;;;;11.37;10.17;;;1.20;99.90;;;;;;5022649;28;20203;-55
2022/12/10 11:10:24;;;;;;;12.43;10.07;;;1.20;99.90;;;;;;5026894;28;20201;-54
2022/12/10 11:12:56;;;;;;;11.97;9.73;;;1.30;99.90;;;;;;5023444;28;20205;-55
2022/12/10 11:15:22;;;;;;;12.80;9.77;;;1.30;99.90;;;;;;5026874;28;20585;-54
2022/12/10 11:17:50;;;;;;;12.10;9.67;;;1.30;99.90;;;;;;5028750;28;20222;-62
2022/12/10 11:20:23;;;;;;;13.20;9.57;;;1.30;99.90;;;;;;5017292;28;20209;-58
2022/12/10 11:22:51;;;;;;;12.10;10.17;;;1.40;99.90;;;;;;5022928;28;20797;-59
2022/12/10 11:25:20;;;;;;;12.67;10.23;;;1.50;99.90;;;;;;5020065;28;20770;-58
2022/12/10 11:28:14;;;;;;;10.90;9.30;;;1.60;99.90;;;;;;5018018;28;20691;-58
2022/12/10 11:30:48;;;;;;;11.93;10.70;;;1.60;99.90;;;;;;5018452;28;20304;-58
2022/12/10 11:33:24;;;;;;;9.97;8.90;;;1.60;99.90;;;;;;5015974;28;20202;-59
2022/12/10 11:36:07;;;;;;;12.70;9.10;;;1.50;99.90;;;;;;5018089;28;20238;-58
2022/12/10 11:38:50;;;;;;;13.20;10.27;;;1.50;99.90;;;;;;5009022;28;20224;-58
2022/12/10 11:41:27;;;;;;;11.20;9.07;;;1.40;99.90;;;;;;5018551;28;20206;-58
2022/12/10 11:44:19;;;;;;;10.57;9.23;;;1.40;99.90;;;;;;5018009;28;20196;-58
2022/12/10 11:47:08;;;;;;;12.10;10.10;;;1.40;99.90;;;;;;5018239;28;20755;-59
2022/12/10 11:49:44;;;;;;;11.23;9.87;;;1.40;99.90;;;;;;5018040;28;20203;-60
2022/12/10 11:52:39;;;;;;;14.30;10.47;;;1.40;99.90;;;;;;5023705;28;20699;-60
2022/12/10 11:55:26;;;;;;;11.90;9.90;;;1.40;99.90;;;;;;4999209;28;20259;-60
2022/12/10 11:58:11;;;;;;;11.17;10.00;;;1.30;99.90;;;;;;5026410;28;20225;-60
2022/12/10 12:00:57;;;;;;;11.13;9.70;;;1.30;99.90;;;;;;5026311;28;20216;-59
2022/12/10 12:03:44;;;;;;;12.10;9.90;;;1.30;99.90;;;;;;5027005;28;20682;-59
2022/12/10 12:06:36;;;;;;;12.67;10.03;;;1.30;99.90;;;;;;5024579;28;20218;-59
2022/12/10 12:09:23;;;;;;;12.37;10.77;;;1.30;99.90;;;;;;5025944;28;20812;-59
2022/12/10 12:12:19;;;;;;;11.47;9.17;;;1.30;99.90;;;;;;5020859;28;20201;-59
2022/12/10 12:14:50;;;;;;;14.53;10.70;;;1.20;99.90;;;;;;5017619;28;20244;-58
2022/12/10 12:17:27;;;;;;;15.93;11.03;;;1.30;99.90;;;;;;5022430;28;20293;-58
2022/12/10 12:19:57;;;;;;;14.27;10.37;;;1.50;99.90;;;;;;5027647;28;20200;-58
2022/12/10 12:22:29;;;;;;;13.13;10.77;;;1.50;99.90;;;;;;5022648;28;20326;-58
2022/12/10 12:25:08;;;;;;;13.50;12.02;;;1.60;99.90;;;;;;5024995;28;20417;-57
2022/12/10 12:27:40;;;;;;;13.90;9.80;;;1.60;99.90;;;;;;5029961;28;20585;-57
2022/12/10 12:30:22;;;;;;;13.53;10.40;;;1.40;99.90;;;;;;5024694;28;20281;-58
2022/12/10 12:33:00;;;;;;;14.33;11.13;;;1.30;99.90;;;;;;5028908;28;20201;-59
2022/12/10 12:35:40;;;;;;;15.07;10.47;;;1.20;99.90;;;;;;5021184;28;20254;-60
2022/12/10 12:38:29;;;;;;;13.73;9.57;;;1.20;99.90;;;;;;5022733;28;20206;-58
2022/12/10 12:41:06;;;;;;;12.57;10.27;;;1.10;99.90;;;;;;5025961;28;20217;-56
2022/12/10 12:43:34;;;;;;;12.90;10.90;;;1.00;99.90;;;;;;5026186;28;20662;-57
2022/12/10 12:46:02;;;;;;;12.47;10.93;;;1.10;99.90;;;;;;5023876;28;20246;-57
2022/12/10 12:48:51;;;;;;;14.77;11.73;;;1.20;99.90;;;;;;5019551;28;20618;-58
2022/12/10 12:51:28;;;;;;;12.70;9.83;;;1.20;99.90;;;;;;5005587;28;20227;-58
2022/12/10 12:53:53;;;;;;;12.90;10.77;;;1.30;99.90;;;;;;5008229;28;20219;-59
2022/12/10 12:56:57;;;;;;;15.57;12.00;;;1.20;99.90;;;;;;5009573;28;20212;-59
2022/12/10 12:59:45;;;;;;;15.33;11.80;;;1.00;99.90;;;;;;5004929;28;20265;-56